Oriental Navigator — DSMA8 — position and weather

sailwx.info

Track history (hours):
 
Tides and Currents Weather Stations Pressure Air Temp Water Temp Dewpoint Dewpoint Depression Visibility Wind Speed Wind Dir Waves Ship Positions

Oriental Navigator

Last reported at 2018-Feb-16 20:02 UTC. Time now 2018-Feb-19 14:12 UTC.
Position N 41°34' E 141°32'.

Length 289 m; draft 10.8 m.

Type: Cargo ship. MMSI: 441969000.

Date/timePositionNaut miles runAvg speedWind from/ knotsBaromVisibWave heightAir tempDewpointWater temp
2018-Feb-16 20:02N 41°34' E 141°32'014.6
2018-Feb-16 20:00N 41°34' E 141°31'714.8
2018-Feb-16 19:30N 41°35' E 141°22'714.1
2018-Feb-16 19:01N 41°36' E 141°12'815.0
2018-Feb-16 18:31N 41°36' E 141°02'815.7
2018-Feb-16 18:01N 41°36' E 140°52'815.7
2018-Feb-16 17:30N 41°32' E 140°43'815.3
2018-Feb-16 17:00N 41°27' E 140°34'815.6
2018-Feb-16 16:31N 41°23' E 140°26'916.6
2018-Feb-16 15:59N 41°19' E 140°16'  
Track history (hours):
 
Tides and Currents Weather Stations Pressure Air Temp Water Temp Dewpoint Dewpoint Depression Visibility Wind Speed Wind Dir Waves Ship Positions

Oriental Navigator

Last reported at 2018-Feb-16 20:02 UTC. Time now 2018-Feb-19 14:12 UTC.
Position N 41°34' E 141°32'.

Length 289 m; draft 10.8 m.

Type: Cargo ship. MMSI: 441969000.

Date/timePositionNaut miles runAvg speedWind from/ knotsBaromVisibWave heightAir tempDewpointWater temp
2018-Feb-16 20:02N 41°34' E 141°32'014.6
2018-Feb-16 20:00N 41°34' E 141°31'714.8
2018-Feb-16 19:30N 41°35' E 141°22'714.1
2018-Feb-16 19:01N 41°36' E 141°12'815.0
2018-Feb-16 18:31N 41°36' E 141°02'815.7
2018-Feb-16 18:01N 41°36' E 140°52'815.7
2018-Feb-16 17:30N 41°32' E 140°43'815.3
2018-Feb-16 17:00N 41°27' E 140°34'815.6
2018-Feb-16 16:31N 41°23' E 140°26'916.6
2018-Feb-16 15:59N 41°19' E 140°16'  

Dump ship's entire track history